createdAt,value
2022-09-17T00:00:46.268Z,995.03
2022-09-17T00:01:46.282Z,995.05
2022-09-17T00:02:46.275Z,995.09
2022-09-17T00:03:46.197Z,995.10
2022-09-17T00:04:46.179Z,995.09
2022-09-17T00:05:46.210Z,995.07
2022-09-17T00:06:46.171Z,995.11
2022-09-17T00:07:46.136Z,995.08
2022-09-17T00:08:46.122Z,995.11
2022-09-17T00:09:46.093Z,995.06
2022-09-17T00:10:46.164Z,995.09
2022-09-17T00:11:46.063Z,995.10
2022-09-17T00:12:46.068Z,995.09
2022-09-17T00:13:46.035Z,995.10
2022-09-17T00:14:46.018Z,995.12
2022-09-17T00:15:46.045Z,995.16
2022-09-17T00:16:45.997Z,995.18
2022-09-17T00:17:45.966Z,995.16
2022-09-17T00:18:45.955Z,995.15
2022-09-17T00:19:45.934Z,995.09
2022-09-17T00:20:45.923Z,995.10
2022-09-17T00:21:45.923Z,995.17
2022-09-17T00:22:45.887Z,995.10
2022-09-17T00:23:45.952Z,995.13
2022-09-17T00:24:45.857Z,995.17
2022-09-17T00:25:45.844Z,995.20
2022-09-17T00:26:45.907Z,995.11
2022-09-17T00:27:46.001Z,995.21
2022-09-17T00:28:45.794Z,995.16
2022-09-17T00:29:45.774Z,995.16
2022-09-17T00:30:45.767Z,995.14
2022-09-17T00:31:45.767Z,995.20
2022-09-17T00:32:45.728Z,995.16
2022-09-17T00:33:45.712Z,995.14
2022-09-17T00:34:45.698Z,995.10
2022-09-17T00:35:45.703Z,995.16
2022-09-17T00:36:45.665Z,995.16
2022-09-17T00:37:45.650Z,995.21
2022-09-17T00:38:45.663Z,995.19
2022-09-17T00:39:45.663Z,995.24
2022-09-17T00:40:45.600Z,995.22
2022-09-17T00:41:45.587Z,995.24
2022-09-17T00:42:45.650Z,995.20
2022-09-17T00:43:45.550Z,995.22
2022-09-17T00:44:45.567Z,995.25
2022-09-17T00:45:45.520Z,995.25
2022-09-17T00:46:45.572Z,995.26
2022-09-17T00:47:45.581Z,995.26
2022-09-17T00:48:45.499Z,995.30
2022-09-17T00:49:45.453Z,995.25
2022-09-17T00:50:45.440Z,995.25
2022-09-17T00:51:45.443Z,995.21
2022-09-17T00:52:45.407Z,995.22
2022-09-17T00:53:45.425Z,995.24
2022-09-17T00:54:45.376Z,995.26
2022-09-17T00:55:45.367Z,995.27
2022-09-17T00:56:45.382Z,995.24
2022-09-17T00:57:45.324Z,995.31
2022-09-17T00:58:45.426Z,995.34
2022-09-17T00:59:45.297Z,995.32
2022-09-17T01:00:45.321Z,995.36
2022-09-17T01:01:45.273Z,995.35
2022-09-17T01:02:45.251Z,995.37
2022-09-17T01:03:45.229Z,995.36
2022-09-17T01:04:45.381Z,995.38
2022-09-17T01:05:45.195Z,995.33
2022-09-17T01:06:45.225Z,995.39
2022-09-17T01:07:45.163Z,995.37
2022-09-17T01:08:45.199Z,995.42
2022-09-17T01:09:45.135Z,995.44
2022-09-17T01:10:45.143Z,995.40
2022-09-17T01:11:45.142Z,995.42
2022-09-17T01:12:45.097Z,995.45
2022-09-17T01:13:45.072Z,995.46
2022-09-17T01:14:45.130Z,995.45
2022-09-17T01:15:45.067Z,995.49
2022-09-17T01:16:45.032Z,995.51
2022-09-17T01:17:45.028Z,995.49
2022-09-17T01:18:45.037Z,995.43
2022-09-17T01:19:44.969Z,995.43
2022-09-17T01:20:44.962Z,995.46
2022-09-17T01:21:44.975Z,995.44
2022-09-17T01:22:44.926Z,995.51
2022-09-17T01:23:44.926Z,995.49
2022-09-17T01:24:44.904Z,995.47
2022-09-17T01:25:44.874Z,995.49
2022-09-17T01:26:44.878Z,995.50
2022-09-17T01:27:45.922Z,995.53
2022-09-17T01:28:44.831Z,995.50
2022-09-17T01:29:44.817Z,995.54
2022-09-17T01:30:44.876Z,995.55
2022-09-17T01:31:44.857Z,995.51
2022-09-17T01:32:44.765Z,995.52
2022-09-17T01:33:44.774Z,995.57
2022-09-17T01:34:45.455Z,995.54
2022-09-17T01:35:44.712Z,995.49
2022-09-17T01:36:44.771Z,995.52
2022-09-17T01:37:44.679Z,995.47
2022-09-17T01:38:44.720Z,995.55
2022-09-17T01:39:44.648Z,995.50
2022-09-17T01:40:44.636Z,995.54
2022-09-17T01:41:44.628Z,995.52
2022-09-17T01:42:44.611Z,995.55
2022-09-17T01:43:44.601Z,995.55
2022-09-17T01:44:44.599Z,995.54
2022-09-17T01:45:44.555Z,995.53
2022-09-17T01:46:44.684Z,995.51
2022-09-17T01:47:44.523Z,995.61
2022-09-17T01:48:44.511Z,995.58
2022-09-17T01:49:44.485Z,995.58
2022-09-17T01:50:44.499Z,995.59
2022-09-17T01:51:44.491Z,995.62
2022-09-17T01:52:44.440Z,995.59
2022-09-17T01:53:44.425Z,995.65
2022-09-17T01:54:44.410Z,995.66
2022-09-17T01:55:44.394Z,995.64
2022-09-17T01:56:44.394Z,995.71
2022-09-17T01:57:44.378Z,995.61
2022-09-17T01:58:44.349Z,995.67
2022-09-17T01:59:44.328Z,995.70
2022-09-17T02:00:44.367Z,995.66
2022-09-17T02:01:44.316Z,995.66
2022-09-17T02:02:44.357Z,995.67
2022-09-17T02:03:44.266Z,995.66
2022-09-17T02:04:44.249Z,995.65
2022-09-17T02:05:44.260Z,995.67
2022-09-17T02:06:44.225Z,995.69
2022-09-17T02:07:44.200Z,995.67
2022-09-17T02:08:44.198Z,995.71
2022-09-17T02:09:44.167Z,995.73
2022-09-17T02:10:44.153Z,995.71
2022-09-17T02:11:44.137Z,995.73
2022-09-17T02:12:44.120Z,995.76
2022-09-17T02:13:44.141Z,995.73
2022-09-17T02:14:44.088Z,995.75
2022-09-17T02:15:44.156Z,995.63
2022-09-17T02:16:44.074Z,995.77
2022-09-17T02:17:44.041Z,995.74
2022-09-17T02:18:44.103Z,995.76
2022-09-17T02:19:44.008Z,995.77
2022-09-17T02:20:43.990Z,995.72
2022-09-17T02:21:44.012Z,995.74
2022-09-17T02:22:43.956Z,995.72
2022-09-17T02:23:43.948Z,995.72
2022-09-17T02:24:43.929Z,995.79
2022-09-17T02:25:43.919Z,995.70
2022-09-17T02:26:43.910Z,995.70
2022-09-17T02:27:43.881Z,995.70
2022-09-17T02:28:43.916Z,995.74
2022-09-17T02:29:43.868Z,995.76
2022-09-17T02:30:43.829Z,995.73
2022-09-17T02:31:43.833Z,995.72
2022-09-17T02:32:43.819Z,995.78
2022-09-17T02:33:43.783Z,995.77
2022-09-17T02:34:43.849Z,995.82
2022-09-17T02:35:43.748Z,995.75
2022-09-17T02:36:43.732Z,995.75
2022-09-17T02:37:43.720Z,995.76
2022-09-17T02:38:43.707Z,995.77
2022-09-17T02:39:43.689Z,995.76
2022-09-17T02:40:43.675Z,995.79
2022-09-17T02:41:43.655Z,995.78
2022-09-17T02:42:43.637Z,995.78
2022-09-17T02:43:43.621Z,995.75
2022-09-17T02:44:43.610Z,995.75
2022-09-17T02:45:43.622Z,995.72
2022-09-17T02:46:43.624Z,995.74
2022-09-17T02:47:43.587Z,995.75
2022-09-17T02:48:43.710Z,995.74
2022-09-17T02:49:43.603Z,995.72
2022-09-17T02:50:43.586Z,995.73
2022-09-17T02:51:43.493Z,995.68
2022-09-17T02:52:43.486Z,995.72
2022-09-17T02:53:43.463Z,995.75
2022-09-17T02:54:43.515Z,995.77
2022-09-17T02:55:43.433Z,995.74
2022-09-17T02:56:43.431Z,995.77
2022-09-17T02:57:43.420Z,995.74
2022-09-17T02:58:43.379Z,995.74
2022-09-17T02:59:43.361Z,995.70
2022-09-17T03:00:43.549Z,995.74
2022-09-17T03:01:43.378Z,995.74
2022-09-17T03:02:43.316Z,995.70
2022-09-17T03:03:43.308Z,995.74
2022-09-17T03:04:43.278Z,995.68
2022-09-17T03:05:43.274Z,995.68
2022-09-17T03:06:43.359Z,995.69
2022-09-17T03:07:43.231Z,995.69
2022-09-17T03:08:43.224Z,995.72
2022-09-17T03:09:43.200Z,995.69
2022-09-17T03:10:43.183Z,995.65
2022-09-17T03:11:43.326Z,995.73
2022-09-17T03:12:43.159Z,995.75
2022-09-17T03:13:43.157Z,995.77
2022-09-17T03:14:43.119Z,995.79
2022-09-17T03:15:43.218Z,995.77
2022-09-17T03:16:43.104Z,995.78
2022-09-17T03:17:43.075Z,995.79
2022-09-17T03:18:43.053Z,995.80
2022-09-17T03:19:43.062Z,995.81
2022-09-17T03:20:43.037Z,995.75
2022-09-17T03:21:43.008Z,995.79
2022-09-17T03:22:43.067Z,995.80
2022-09-17T03:23:42.977Z,995.81
2022-09-17T03:24:42.988Z,995.80
2022-09-17T03:25:42.942Z,995.81
2022-09-17T03:26:42.922Z,995.81
2022-09-17T03:27:42.908Z,995.84
2022-09-17T03:28:42.949Z,995.85
2022-09-17T03:29:42.898Z,995.81
2022-09-17T03:30:42.870Z,995.82
2022-09-17T03:31:42.939Z,995.84
2022-09-17T03:32:42.846Z,995.84
2022-09-17T03:33:42.808Z,995.82
2022-09-17T03:34:42.805Z,995.84
2022-09-17T03:35:42.777Z,995.83
2022-09-17T03:36:42.760Z,995.82
2022-09-17T03:37:42.746Z,995.78
2022-09-17T03:38:42.998Z,995.80
2022-09-17T03:39:42.715Z,995.82
2022-09-17T03:40:42.694Z,995.87
2022-09-17T03:41:42.681Z,995.86
2022-09-17T03:42:42.663Z,995.82
2022-09-17T03:43:42.649Z,995.85
2022-09-17T03:44:45.397Z,995.91
2022-09-17T03:45:42.633Z,995.93
2022-09-17T03:46:42.641Z,995.94
2022-09-17T03:47:42.584Z,995.99
2022-09-17T03:48:42.594Z,995.94
2022-09-17T03:49:42.576Z,996.04
2022-09-17T03:50:42.557Z,995.99
2022-09-17T03:51:42.520Z,996.04
2022-09-17T03:52:42.541Z,995.97
2022-09-17T03:53:42.485Z,996.06
2022-09-17T03:54:42.569Z,996.04
2022-09-17T03:55:42.479Z,996.03
2022-09-17T03:56:42.434Z,996.07
2022-09-17T03:57:42.427Z,996.07
2022-09-17T03:58:42.402Z,996.03
2022-09-17T03:59:42.418Z,996.17
2022-09-17T04:00:42.373Z,996.15
2022-09-17T04:01:42.467Z,996.12
2022-09-17T04:02:42.401Z,996.21
2022-09-17T04:03:42.319Z,996.19
2022-09-17T04:04:42.322Z,996.17
2022-09-17T04:05:42.405Z,996.21
2022-09-17T04:06:42.273Z,996.21
2022-09-17T04:07:42.251Z,996.19
2022-09-17T04:08:42.242Z,996.16
2022-09-17T04:09:42.246Z,996.17
2022-09-17T04:10:42.285Z,996.16
2022-09-17T04:11:42.218Z,996.11
2022-09-17T04:12:42.205Z,996.14
2022-09-17T04:13:42.188Z,996.13
2022-09-17T04:14:42.168Z,996.09
2022-09-17T04:15:42.570Z,996.18
2022-09-17T04:16:42.110Z,996.16
2022-09-17T04:17:42.118Z,996.14
2022-09-17T04:18:42.087Z,996.15
2022-09-17T04:19:42.059Z,996.14
2022-09-17T04:20:42.064Z,996.12
2022-09-17T04:21:42.024Z,996.10
2022-09-17T04:22:42.035Z,996.17
2022-09-17T04:23:41.989Z,996.17
2022-09-17T04:24:41.977Z,996.18
2022-09-17T04:25:41.961Z,996.18
2022-09-17T04:26:42.020Z,996.21
2022-09-17T04:27:41.954Z,996.19
2022-09-17T04:28:41.909Z,996.21
2022-09-17T04:29:41.945Z,996.20
2022-09-17T04:30:41.877Z,996.24
2022-09-17T04:31:41.906Z,996.24
2022-09-17T04:32:41.843Z,996.23
2022-09-17T04:33:41.824Z,996.29
2022-09-17T04:34:41.813Z,996.24
2022-09-17T04:35:41.793Z,996.24
2022-09-17T04:36:41.892Z,996.25
2022-09-17T04:37:41.760Z,996.24
2022-09-17T04:38:41.745Z,996.22
2022-09-17T04:39:41.759Z,996.22
2022-09-17T04:40:41.801Z,996.21
2022-09-17T04:41:41.714Z,996.25
2022-09-17T04:42:41.753Z,996.26
2022-09-17T04:43:41.657Z,996.16
2022-09-17T04:44:41.680Z,996.21
2022-09-17T04:45:41.625Z,996.18
2022-09-17T04:46:41.655Z,996.23
2022-09-17T04:47:41.595Z,996.22
2022-09-17T04:48:41.578Z,996.20
2022-09-17T04:49:41.565Z,996.22
2022-09-17T04:50:41.548Z,996.25
2022-09-17T04:51:41.530Z,996.27
2022-09-17T04:52:41.529Z,996.24
2022-09-17T04:53:41.495Z,996.29
2022-09-17T04:54:41.497Z,996.29
2022-09-17T04:55:41.462Z,996.29
2022-09-17T04:56:41.443Z,996.28
2022-09-17T04:57:41.430Z,996.28
2022-09-17T04:58:41.498Z,996.30
2022-09-17T04:59:41.392Z,996.34
2022-09-17T05:00:41.466Z,996.34
2022-09-17T05:01:41.393Z,996.29
2022-09-17T05:02:41.361Z,996.33
2022-09-17T05:03:41.325Z,996.31
2022-09-17T05:04:41.317Z,996.31
2022-09-17T05:05:41.343Z,996.31
2022-09-17T05:06:41.329Z,996.28
2022-09-17T05:07:41.262Z,996.29
2022-09-17T05:08:41.255Z,996.29
2022-09-17T05:09:41.226Z,996.28
2022-09-17T05:10:42.287Z,996.32
2022-09-17T05:11:41.202Z,996.35
2022-09-17T05:12:41.178Z,996.34
2022-09-17T05:13:41.162Z,996.37
2022-09-17T05:14:41.236Z,996.37
2022-09-17T05:15:41.167Z,996.31
2022-09-17T05:16:41.135Z,996.32
2022-09-17T05:17:41.094Z,996.25
2022-09-17T05:18:41.078Z,996.29
2022-09-17T05:19:41.061Z,996.26
2022-09-17T05:20:41.106Z,996.32
2022-09-17T05:21:41.024Z,996.33
2022-09-17T05:22:41.034Z,996.30
2022-09-17T05:23:41.061Z,996.32
2022-09-17T05:24:40.989Z,996.34
2022-09-17T05:25:40.957Z,996.32
2022-09-17T05:26:40.943Z,996.36
2022-09-17T05:27:40.968Z,996.44
2022-09-17T05:28:40.908Z,996.43
2022-09-17T05:29:40.893Z,996.45
2022-09-17T05:30:40.955Z,996.42
2022-09-17T05:31:40.922Z,996.43
2022-09-17T05:32:40.896Z,996.49
2022-09-17T05:33:40.824Z,996.50
2022-09-17T05:34:40.812Z,996.50
2022-09-17T05:35:40.801Z,996.55
2022-09-17T05:36:40.777Z,996.54
2022-09-17T05:37:40.756Z,996.60
2022-09-17T05:38:40.741Z,996.55
2022-09-17T05:39:40.730Z,996.55
2022-09-17T05:40:40.760Z,996.63
2022-09-17T05:41:40.689Z,996.66
2022-09-17T05:42:40.677Z,996.65
2022-09-17T05:43:40.663Z,996.63
2022-09-17T05:44:40.670Z,996.62
2022-09-17T05:45:40.650Z,996.59
2022-09-17T05:46:40.737Z,996.63
2022-09-17T05:47:40.594Z,996.63
2022-09-17T05:48:40.574Z,996.63
2022-09-17T05:49:40.560Z,996.62
2022-09-17T05:50:40.712Z,996.68
2022-09-17T05:51:40.527Z,996.66
2022-09-17T05:52:40.506Z,996.66
2022-09-17T05:53:40.503Z,996.61
2022-09-17T05:54:40.486Z,996.68
2022-09-17T05:55:40.460Z,996.65
2022-09-17T05:56:40.444Z,996.66
2022-09-17T05:57:40.425Z,996.67
2022-09-17T05:58:40.407Z,996.67
2022-09-17T05:59:40.405Z,996.67
2022-09-17T06:00:40.404Z,996.67
2022-09-17T06:01:40.393Z,996.69
2022-09-17T06:02:40.475Z,996.71
2022-09-17T06:03:40.321Z,996.73
2022-09-17T06:04:40.309Z,996.80
2022-09-17T06:05:40.290Z,996.78
2022-09-17T06:06:40.300Z,996.75
2022-09-17T06:07:40.270Z,996.74
2022-09-17T06:08:40.243Z,996.73
2022-09-17T06:09:40.228Z,996.76
2022-09-17T06:10:40.231Z,996.78
2022-09-17T06:11:40.200Z,996.77
2022-09-17T06:12:40.177Z,996.76
2022-09-17T06:13:40.162Z,996.76
2022-09-17T06:14:40.142Z,996.81
2022-09-17T06:15:40.122Z,996.79
2022-09-17T06:16:40.246Z,996.83
2022-09-17T06:17:40.092Z,996.81
2022-09-17T06:18:40.157Z,996.85
2022-09-17T06:19:40.060Z,996.83
2022-09-17T06:20:40.056Z,996.77
2022-09-17T06:21:40.036Z,996.83
2022-09-17T06:22:40.035Z,996.79
2022-09-17T06:23:39.990Z,996.84
2022-09-17T06:24:39.976Z,996.84
2022-09-17T06:25:39.956Z,996.86
2022-09-17T06:26:39.972Z,996.83
2022-09-17T06:27:39.951Z,996.84
2022-09-17T06:28:41.859Z,996.83
2022-09-17T06:29:39.900Z,996.86
2022-09-17T06:30:39.881Z,996.85
2022-09-17T06:31:39.966Z,996.82
2022-09-17T06:32:39.892Z,996.87
2022-09-17T06:33:39.824Z,996.80
2022-09-17T06:34:39.918Z,996.92
2022-09-17T06:35:39.793Z,996.86
2022-09-17T06:36:39.781Z,996.92
2022-09-17T06:37:39.757Z,996.90
2022-09-17T06:38:39.758Z,996.91
2022-09-17T06:39:39.728Z,996.87
2022-09-17T06:40:39.793Z,996.88
2022-09-17T06:41:39.689Z,996.86
2022-09-17T06:42:39.678Z,996.87
2022-09-17T06:43:39.686Z,996.94
2022-09-17T06:44:39.644Z,996.93
2022-09-17T06:45:39.622Z,996.96
2022-09-17T06:46:39.642Z,996.94
2022-09-17T06:47:39.620Z,996.90
2022-09-17T06:48:39.575Z,996.92
2022-09-17T06:49:39.569Z,996.86
2022-09-17T06:50:42.766Z,996.92
2022-09-17T06:51:39.580Z,996.88
2022-09-17T06:52:39.519Z,996.93
2022-09-17T06:53:39.497Z,996.93
2022-09-17T06:54:39.477Z,996.95
2022-09-17T06:55:39.457Z,996.92
2022-09-17T06:56:39.443Z,996.99
2022-09-17T06:57:39.460Z,996.97
2022-09-17T06:58:39.411Z,996.96
2022-09-17T06:59:39.393Z,996.91
2022-09-17T07:00:39.460Z,996.90
2022-09-17T07:01:39.406Z,996.85
2022-09-17T07:02:39.412Z,996.91
2022-09-17T07:03:39.350Z,996.82
2022-09-17T07:04:39.312Z,996.87
2022-09-17T07:05:39.291Z,996.91
2022-09-17T07:06:39.369Z,996.97
2022-09-17T07:07:39.262Z,996.92
2022-09-17T07:08:39.257Z,996.96
2022-09-17T07:09:39.225Z,996.99
2022-09-17T07:10:39.210Z,996.92
2022-09-17T07:11:39.213Z,996.90
2022-09-17T07:12:39.186Z,996.90
2022-09-17T07:13:39.192Z,996.95
2022-09-17T07:14:39.149Z,996.91
2022-09-17T07:15:39.144Z,996.96
2022-09-17T07:16:39.110Z,997.01
2022-09-17T07:17:39.093Z,996.98
2022-09-17T07:18:39.147Z,996.99
2022-09-17T07:19:39.062Z,996.97
2022-09-17T07:20:39.060Z,997.03
2022-09-17T07:21:39.026Z,996.96
2022-09-17T07:22:39.092Z,996.98
2022-09-17T07:23:38.999Z,996.95
2022-09-17T07:24:39.062Z,996.93
2022-09-17T07:25:38.970Z,996.97
2022-09-17T07:26:38.961Z,996.84
2022-09-17T07:27:38.928Z,996.83
2022-09-17T07:28:38.917Z,996.91
2022-09-17T07:29:38.896Z,996.91
2022-09-17T07:30:38.904Z,996.84
2022-09-17T07:31:38.898Z,996.86
2022-09-17T07:32:38.864Z,996.87
2022-09-17T07:33:38.834Z,996.89
2022-09-17T07:34:38.817Z,996.86
2022-09-17T07:35:38.830Z,996.86
2022-09-17T07:36:38.822Z,996.87
2022-09-17T07:37:38.767Z,997.00
2022-09-17T07:38:38.837Z,996.90
2022-09-17T07:39:38.734Z,996.95
2022-09-17T07:40:38.824Z,996.95
2022-09-17T07:41:38.731Z,996.87
2022-09-17T07:42:38.691Z,996.90
2022-09-17T07:43:38.672Z,996.92
2022-09-17T07:44:38.653Z,996.86
2022-09-17T07:45:38.637Z,996.87
2022-09-17T07:46:38.689Z,996.96
2022-09-17T07:47:38.610Z,996.95
2022-09-17T07:48:38.599Z,996.85
2022-09-17T07:49:38.600Z,996.73
2022-09-17T07:50:38.556Z,996.84
2022-09-17T07:51:40.428Z,996.86
2022-09-17T07:52:38.528Z,996.93
2022-09-17T07:53:38.547Z,996.86
2022-09-17T07:54:38.569Z,996.80
2022-09-17T07:55:38.506Z,996.82
2022-09-17T07:56:38.463Z,996.81
2022-09-17T07:57:38.442Z,996.82
2022-09-17T07:58:38.435Z,996.83
2022-09-17T07:59:38.638Z,996.80
2022-09-17T08:00:38.428Z,996.91
2022-09-17T08:01:38.510Z,996.95
2022-09-17T08:02:38.464Z,996.81
2022-09-17T08:03:38.416Z,996.84
2022-09-17T08:04:38.335Z,996.84
2022-09-17T08:05:38.315Z,996.83
2022-09-17T08:06:38.296Z,996.89
2022-09-17T08:07:38.282Z,996.99
2022-09-17T08:08:38.270Z,996.86
2022-09-17T08:09:38.254Z,996.80
2022-09-17T08:10:38.313Z,996.80
2022-09-17T08:11:55.137Z,996.84
2022-09-17T08:12:38.214Z,996.73
2022-09-17T08:13:38.224Z,996.73
2022-09-17T08:14:38.172Z,996.87
2022-09-17T08:15:38.155Z,996.79
2022-09-17T08:16:38.171Z,996.74
2022-09-17T08:17:38.129Z,996.82
2022-09-17T08:18:38.129Z,996.80
2022-09-17T08:19:38.091Z,996.71
2022-09-17T08:20:38.074Z,996.74
2022-09-17T08:21:38.059Z,996.87
2022-09-17T08:22:38.044Z,996.82
2022-09-17T08:23:38.056Z,996.78
2022-09-17T08:24:38.011Z,996.78
2022-09-17T08:25:38.041Z,996.75
2022-09-17T08:26:38.057Z,996.73
2022-09-17T08:27:37.992Z,996.77
2022-09-17T08:28:37.967Z,996.72
2022-09-17T08:29:37.932Z,996.82
2022-09-17T08:30:37.942Z,996.82
2022-09-17T08:31:37.973Z,996.82
2022-09-17T08:32:37.879Z,996.83
2022-09-17T08:33:37.865Z,996.82
2022-09-17T08:34:37.852Z,996.80
2022-09-17T08:35:37.858Z,996.77
2022-09-17T08:36:37.821Z,996.80
2022-09-17T08:37:37.802Z,996.86
2022-09-17T08:38:38.367Z,996.73
2022-09-17T08:39:37.768Z,996.85
2022-09-17T08:40:37.971Z,996.74
2022-09-17T08:41:37.739Z,996.83
2022-09-17T08:42:38.682Z,996.87
2022-09-17T08:43:37.709Z,996.81
2022-09-17T08:44:37.688Z,996.81
2022-09-17T08:45:37.696Z,996.84
2022-09-17T08:46:37.838Z,996.87
2022-09-17T08:47:37.648Z,996.71
2022-09-17T08:48:37.627Z,996.81
2022-09-17T08:49:37.640Z,996.70
2022-09-17T08:50:37.593Z,996.81
2022-09-17T08:51:37.863Z,996.76
2022-09-17T08:52:37.728Z,996.90
2022-09-17T08:53:37.550Z,996.79
2022-09-17T08:54:37.531Z,996.81
2022-09-17T08:55:37.546Z,996.78
2022-09-17T08:56:37.515Z,996.78
2022-09-17T08:57:37.483Z,996.83
2022-09-17T08:58:37.581Z,996.76
2022-09-17T08:59:37.454Z,996.74
2022-09-17T09:00:37.447Z,996.74
2022-09-17T09:01:37.468Z,996.78
2022-09-17T09:02:37.476Z,996.76
2022-09-17T09:03:37.453Z,996.73
2022-09-17T09:04:37.379Z,996.80
2022-09-17T09:05:37.358Z,996.86
2022-09-17T09:06:37.342Z,996.76
2022-09-17T09:07:37.329Z,996.59
2022-09-17T09:08:37.321Z,996.77
2022-09-17T09:09:37.300Z,996.75
2022-09-17T09:10:38.094Z,996.77
2022-09-17T09:11:37.289Z,996.81
2022-09-17T09:12:37.248Z,996.87
2022-09-17T09:13:37.233Z,996.82
2022-09-17T09:14:37.310Z,996.83
2022-09-17T09:15:37.202Z,996.76
2022-09-17T09:16:37.279Z,996.85
2022-09-17T12:40:25.298Z,995.35
2022-09-17T12:41:25.118Z,995.38
2022-09-17T12:51:51.669Z,995.80
2022-09-17T12:52:51.557Z,995.76
2022-09-17T12:53:51.547Z,995.83
2022-09-17T12:54:51.535Z,995.72
2022-09-17T12:55:51.521Z,995.78
2022-09-17T12:56:51.503Z,995.73
2022-09-17T12:57:51.488Z,995.90
2022-09-17T12:59:35.594Z,995.75
2022-09-17T13:00:35.627Z,995.70
2022-09-17T13:01:35.591Z,995.83
2022-09-17T13:02:35.540Z,995.83
2022-09-17T13:03:35.523Z,995.78
2022-09-17T13:04:59.586Z,995.91
2022-09-17T13:05:36.165Z,995.81
2022-09-17T13:06:35.484Z,995.77
2022-09-17T13:07:35.552Z,995.82
2022-09-17T13:08:35.456Z,995.76
2022-09-17T13:09:35.438Z,995.86
2022-09-17T13:10:35.437Z,995.85
2022-09-17T13:11:35.927Z,995.72
2022-09-17T13:12:35.400Z,995.68
2022-09-17T13:13:35.420Z,995.84
2022-09-17T13:14:35.383Z,995.68
2022-09-17T13:15:35.381Z,995.78
2022-09-17T13:16:35.381Z,995.81
2022-09-17T13:17:35.425Z,995.77
2022-09-17T13:18:35.332Z,995.81
2022-09-17T13:19:35.300Z,995.80
2022-09-17T13:20:35.324Z,995.75
2022-09-17T13:21:35.278Z,995.75
2022-09-17T13:22:35.262Z,995.79
2022-09-17T13:23:35.324Z,995.77
2022-09-17T13:24:35.231Z,995.65
2022-09-17T13:25:35.243Z,995.73
2022-09-17T13:26:35.202Z,995.76
2022-09-17T13:27:35.195Z,995.70
2022-09-17T13:28:35.175Z,995.68
2022-09-17T13:29:35.168Z,995.63
2022-09-17T13:30:35.209Z,995.65
2022-09-17T13:31:35.195Z,995.61
2022-09-17T13:32:35.134Z,995.70
2022-09-17T13:33:35.103Z,995.79
2022-09-17T13:34:35.093Z,995.77
2022-09-17T13:35:35.078Z,995.88
2022-09-17T13:36:35.098Z,995.70
2022-09-17T13:37:35.045Z,995.82
2022-09-17T13:38:35.033Z,995.70
2022-09-17T13:39:35.104Z,995.73
2022-09-17T13:40:35.141Z,995.85
2022-09-17T13:41:35.732Z,995.82
2022-09-17T13:42:35.008Z,995.75
2022-09-17T13:43:34.976Z,995.77
2022-09-17T13:44:34.950Z,995.76
2022-09-17T13:45:34.933Z,995.82
2022-09-17T13:46:34.976Z,995.82
2022-09-17T13:47:35.004Z,995.74
2022-09-17T13:48:34.946Z,995.97
2022-09-17T13:49:34.877Z,995.87
2022-09-17T13:50:34.877Z,995.89
2022-09-17T13:51:34.851Z,995.72
2022-09-17T13:52:34.841Z,995.76
2022-09-17T13:53:34.895Z,995.72
2022-09-17T13:54:34.813Z,995.79
2022-09-17T13:55:34.881Z,995.75
2022-09-17T13:56:34.812Z,995.68
2022-09-17T13:57:34.768Z,995.83
2022-09-17T13:58:34.819Z,995.77
2022-09-17T13:59:34.780Z,995.71
2022-09-17T14:00:34.780Z,995.65
2022-09-17T14:01:34.718Z,995.69
2022-09-17T14:02:34.810Z,995.70
2022-09-17T14:03:34.696Z,995.83
2022-09-17T14:04:34.681Z,995.89
2022-09-17T14:05:34.689Z,995.90
2022-09-17T14:06:34.785Z,995.89
2022-09-17T14:07:34.642Z,995.77
2022-09-17T14:08:34.626Z,995.79
2022-09-17T14:09:38.611Z,995.86
2022-09-17T14:10:34.665Z,995.77
2022-09-17T14:11:34.669Z,995.84
2022-09-17T14:12:34.595Z,995.93
2022-09-17T14:13:34.566Z,995.87
2022-09-17T14:14:34.557Z,995.93
2022-09-17T14:15:34.545Z,995.96
2022-09-17T14:16:34.608Z,995.91
2022-09-17T14:17:34.547Z,995.99
2022-09-17T14:18:34.503Z,995.89
2022-09-17T14:19:34.501Z,995.84
2022-09-17T14:20:34.477Z,995.87
2022-09-17T14:21:34.498Z,995.90
2022-09-17T14:22:34.474Z,995.92
2022-09-17T14:23:34.443Z,996.00
2022-09-17T14:24:34.423Z,995.94
2022-09-17T14:25:34.427Z,995.76
2022-09-17T14:26:34.438Z,995.73
2022-09-17T14:27:37.615Z,995.76
2022-09-17T14:28:34.370Z,995.74
2022-09-17T14:29:34.363Z,995.76
2022-09-17T14:30:34.347Z,995.83
2022-09-17T14:31:34.460Z,995.81
2022-09-17T14:32:34.350Z,995.95
2022-09-17T14:33:34.298Z,995.77
2022-09-17T14:34:34.298Z,995.80
2022-09-17T14:35:34.271Z,995.79
2022-09-17T14:36:34.258Z,995.75
2022-09-17T14:37:34.274Z,995.82
2022-09-17T14:38:34.235Z,995.86
2022-09-17T14:39:34.219Z,995.78
2022-09-17T14:40:34.325Z,995.75
2022-09-17T14:41:34.198Z,995.81
2022-09-17T14:42:34.221Z,995.80
2022-09-17T14:43:34.246Z,995.78
2022-09-17T14:44:34.159Z,995.84
2022-09-17T14:45:34.177Z,995.65
2022-09-17T14:46:34.169Z,995.65
2022-09-17T14:47:34.138Z,995.71
2022-09-17T14:48:34.140Z,995.71
2022-09-17T14:49:34.088Z,995.65
2022-09-17T14:50:34.074Z,995.74
2022-09-17T14:51:34.761Z,995.65
2022-09-17T14:52:34.063Z,995.59
2022-09-17T14:53:34.061Z,995.63
2022-09-17T14:54:36.583Z,995.43
2022-09-17T14:55:34.013Z,995.51
2022-09-17T14:56:34.004Z,995.50
2022-09-17T14:57:34.017Z,995.71
2022-09-17T14:58:34.004Z,995.68
2022-09-17T14:59:34.095Z,995.53
2022-09-17T15:00:33.951Z,995.51
2022-09-17T15:01:34.015Z,995.66
2022-09-17T15:02:33.992Z,995.61
2022-09-17T15:03:33.921Z,995.56
2022-09-17T15:04:33.898Z,995.56
2022-09-17T15:05:33.920Z,995.51
2022-09-17T15:06:33.878Z,995.51
2022-09-17T15:07:33.866Z,995.48
2022-09-17T15:08:33.855Z,995.52
2022-09-17T15:09:33.837Z,995.52
2022-09-17T15:10:33.855Z,995.50
2022-09-17T15:11:33.822Z,995.40
2022-09-17T15:12:33.802Z,995.53
2022-09-17T15:13:33.788Z,995.53
2022-09-17T15:14:33.781Z,995.48
2022-09-17T15:15:33.885Z,995.53
2022-09-17T15:16:33.790Z,995.41
2022-09-17T15:17:33.756Z,995.73
2022-09-17T15:18:33.730Z,995.65
2022-09-17T15:19:33.718Z,995.59
2022-09-17T15:20:33.731Z,995.66
2022-09-17T15:21:33.717Z,995.67
2022-09-17T15:22:33.681Z,995.66
2022-09-17T15:23:33.666Z,995.65
2022-09-17T15:24:33.654Z,995.68
2022-09-17T15:25:33.668Z,995.70
2022-09-17T15:26:33.630Z,995.69
2022-09-17T15:27:33.616Z,995.67
2022-09-17T15:28:33.604Z,995.67
2022-09-17T15:29:33.587Z,995.74
2022-09-17T15:30:33.741Z,995.71
2022-09-17T15:31:33.759Z,995.69
2022-09-17T15:32:33.548Z,995.70
2022-09-17T15:33:33.545Z,995.74
2022-09-17T15:34:33.524Z,995.75
2022-09-17T15:35:33.533Z,995.80
2022-09-17T15:36:33.497Z,995.70
2022-09-17T15:37:33.500Z,995.84
2022-09-17T15:38:33.470Z,995.72
2022-09-17T15:39:33.455Z,995.92
2022-09-17T15:40:33.522Z,995.94
2022-09-17T15:41:33.458Z,995.84
2022-09-17T15:42:33.418Z,995.89
2022-09-17T15:43:33.403Z,995.95
2022-09-17T15:44:33.416Z,995.84
2022-09-17T15:45:33.374Z,995.94
2022-09-17T15:46:33.445Z,995.96
2022-09-17T15:47:33.423Z,995.98
2022-09-17T15:48:33.336Z,995.94
2022-09-17T15:49:33.317Z,995.97
2022-09-17T15:50:33.307Z,995.92
2022-09-17T15:51:33.326Z,995.88
2022-09-17T15:52:33.283Z,995.90
2022-09-17T15:53:33.265Z,995.81
2022-09-17T15:54:33.252Z,995.78
2022-09-17T15:55:33.235Z,995.81
2022-09-17T15:56:33.270Z,995.80
2022-09-17T15:57:33.206Z,995.79
2022-09-17T15:58:33.192Z,995.82
2022-09-17T15:59:33.246Z,995.82
2022-09-17T16:00:33.170Z,995.82
2022-09-17T16:01:33.234Z,995.80